Time;durP1;ratioP1;P1;durP2;ratioP2;P2;SDS_P1;SDS_P2;PMS_P1;PMS_P2;Temp;Humidity;BMP_temperature;BMP_pressure;BME280_temperature;BME280_humidity;BME280_pressure;Samples;Min_cycle;Max_cycle;Signal;HPM_P1;HPM_P2
2021/06/13 00:02:15;;;;;;;11.50;2.75;;;;;;;12.91;68.68;101211.91;5085039;28;20309;-68
2021/06/13 00:04:42;;;;;;;8.15;2.92;;;;;;;13.03;67.80;101209.50;5085404;28;20048;-70
2021/06/13 00:07:09;;;;;;;12.95;3.30;;;;;;;13.00;67.58;101205.22;5091746;28;20146;-69
2021/06/13 00:09:36;;;;;;;7.65;3.08;;;;;;;12.88;67.53;101198.91;5064866;28;20399;-67
2021/06/13 00:12:07;;;;;;;11.38;3.25;;;;;;;12.87;67.15;101206.91;5066954;28;20603;-69
2021/06/13 00:14:34;;;;;;;12.25;3.95;;;;;;;12.80;67.51;101206.44;5096383;28;20624;-68
2021/06/13 00:17:02;;;;;;;12.70;3.70;;;;;;;12.88;66.63;101209.47;5067522;28;20062;-68
2021/06/13 00:19:30;;;;;;;7.53;2.92;;;;;;;12.85;66.99;101219.38;5049728;28;20143;-68
2021/06/13 00:21:58;;;;;;;10.18;3.47;;;;;;;12.75;66.93;101219.06;5054909;28;20057;-69
2021/06/13 00:24:25;;;;;;;9.73;3.28;;;;;;;12.70;67.32;101221.13;5076742;28;20040;-69
2021/06/13 00:26:52;;;;;;;12.95;3.35;;;;;;;12.76;66.45;101219.91;5084716;28;20063;-68
2021/06/13 00:29:19;;;;;;;11.30;3.08;;;;;;;12.82;66.15;101219.53;5067677;28;20074;-69
2021/06/13 00:31:47;;;;;;;15.95;3.10;;;;;;;12.70;65.63;101230.81;5094048;28;20052;-68
2021/06/13 00:34:14;;;;;;;14.73;3.15;;;;;;;12.70;65.38;101230.81;5083735;28;20051;-69
2021/06/13 00:36:41;;;;;;;10.13;3.45;;;;;;;12.74;65.54;101240.25;5085254;28;20063;-69
2021/06/13 00:39:08;;;;;;;10.35;3.00;;;;;;;12.58;65.88;101230.59;5098232;28;20050;-69
2021/06/13 00:41:35;;;;;;;5.85;2.70;;;;;;;12.65;65.04;101231.09;5087783;28;20136;-69
2021/06/13 00:44:03;;;;;;;8.88;2.97;;;;;;;12.63;64.75;101225.91;5096672;28;20070;-68
2021/06/13 00:46:30;;;;;;;15.45;3.38;;;;;;;12.54;64.51;101234.34;5064695;28;20044;-68
2021/06/13 00:48:57;;;;;;;10.50;3.70;;;;;;;12.50;64.45;101239.91;5067599;28;20055;-69
2021/06/13 00:51:24;;;;;;;8.98;3.53;;;;;;;12.50;63.93;101238.09;5073802;28;20156;-68
2021/06/13 00:53:51;;;;;;;18.20;3.50;;;;;;;12.48;63.78;101247.91;5066798;28;20047;-69
2021/06/13 00:56:19;;;;;;;8.68;3.25;;;;;;;12.47;63.37;101246.19;5092787;28;20102;-68
2021/06/13 00:58:47;;;;;;;12.48;3.00;;;;;;;12.42;63.12;101242.97;5091758;28;20155;-69
2021/06/13 01:01:14;;;;;;;13.32;4.00;;;;;;;12.39;62.88;101246.66;5069090;28;20056;-69
2021/06/13 01:03:43;;;;;;;10.02;2.83;;;;;;;12.40;62.73;101255.41;5094909;28;20054;-69
2021/06/13 01:06:10;;;;;;;13.20;3.22;;;;;;;12.35;62.86;101252.19;5075181;28;20048;-67
2021/06/13 01:08:46;;;;;;;6.68;2.95;;;;;;;12.31;62.73;101248.88;5073359;28;20055;-68
2021/06/13 01:11:42;;;;;;;11.88;3.53;;;;;;;12.39;62.57;101253.72;5068811;28;20051;-69
2021/06/13 01:14:17;;;;;;;10.35;3.30;;;;;;;12.36;62.39;101246.81;5060762;28;20503;-69
2021/06/13 01:17:03;;;;;;;11.13;3.45;;;;;;;12.27;63.15;101255.25;5071151;28;20047;-68
2021/06/13 01:19:51;;;;;;;10.10;2.85;;;;;;;12.23;62.70;101255.50;5056542;28;20043;-69
2021/06/13 01:22:36;;;;;;;9.85;3.17;;;;;;;12.22;62.82;101267.00;5056798;28;20051;-69
2021/06/13 01:25:07;;;;;;;8.68;2.60;;;;;;;12.24;62.27;101263.34;5069881;28;20422;-68
2021/06/13 01:27:53;;;;;;;15.30;3.60;;;;;;;12.15;62.88;101263.84;5076902;28;20667;-69
2021/06/13 01:30:23;;;;;;;7.00;2.97;;;;;;;12.19;62.61;101265.38;5077826;28;20062;-69
2021/06/13 01:32:50;;;;;;;8.88;2.63;;;;;;;12.13;62.53;101268.38;5067932;28;20131;-69
2021/06/13 01:35:22;;;;;;;11.63;3.10;;;;;;;12.09;62.91;101267.69;5067301;28;20047;-68
2021/06/13 01:37:52;;;;;;;11.98;3.00;;;;;;;12.08;63.18;101268.63;5069076;28;20098;-68
2021/06/13 01:40:23;;;;;;;7.75;2.38;;;;;;;12.08;63.39;101259.84;5053239;28;20032;-67
2021/06/13 01:42:52;;;;;;;8.73;2.78;;;;;;;12.04;64.07;101269.72;5069989;28;20052;-68
2021/06/13 01:45:22;;;;;;;12.95;3.08;;;;;;;12.07;64.12;101269.56;5076531;28;20469;-68
2021/06/13 01:47:50;;;;;;;9.65;3.28;;;;;;;12.02;64.77;101270.72;5065073;28;20048;-69
2021/06/13 01:50:18;;;;;;;9.70;3.28;;;;;;;11.98;65.39;101279.75;5068117;28;20044;-67
2021/06/13 01:52:47;;;;;;;12.85;3.25;;;;;;;11.95;65.89;101270.22;5068584;28;20036;-69
2021/06/13 01:55:18;;;;;;;10.98;3.20;;;;;;;11.92;65.90;101283.56;5061549;28;20048;-68
2021/06/13 01:57:46;;;;;;;9.00;3.00;;;;;;;11.90;66.26;101285.47;5069108;28;20278;-68
2021/06/13 02:00:14;;;;;;;9.63;3.00;;;;;;;11.96;66.04;101284.28;5068790;28;20051;-69
2021/06/13 02:02:43;;;;;;;10.02;3.25;;;;;;;12.02;65.78;101286.56;5069826;28;20075;-69
2021/06/13 02:05:12;;;;;;;8.77;3.10;;;;;;;11.98;65.85;101291.19;5078915;28;20043;-68
2021/06/13 02:07:39;;;;;;;8.77;2.67;;;;;;;11.98;65.72;101293.81;5095914;28;20058;-68
2021/06/13 02:10:09;;;;;;;10.88;3.58;;;;;;;12.03;65.58;101286.50;5087026;28;20202;-69
2021/06/13 02:12:38;;;;;;;8.82;3.03;;;;;;;12.01;65.36;101287.50;5056316;28;20052;-67
2021/06/13 02:15:06;;;;;;;13.27;3.03;;;;;;;12.03;65.58;101289.13;5068791;28;20043;-68
2021/06/13 02:17:34;;;;;;;8.73;3.38;;;;;;;11.96;65.68;101294.81;5050686;28;20094;-68
2021/06/13 02:20:05;;;;;;;12.35;3.60;;;;;;;11.89;65.93;101291.69;5067448;28;20036;-68
2021/06/13 02:22:34;;;;;;;12.20;3.20;;;;;;;11.92;65.64;101296.75;5085570;28;20054;-68
2021/06/13 02:25:01;;;;;;;13.30;3.28;;;;;;;11.96;65.62;101294.81;5055200;28;20040;-67
2021/06/13 02:27:29;;;;;;;10.77;3.15;;;;;;;11.98;65.71;101299.09;5067704;28;20169;-69
2021/06/13 02:29:57;;;;;;;21.30;3.80;;;;;;;12.03;65.65;101299.69;5085787;28;20043;-69
2021/06/13 02:32:25;;;;;;;16.35;3.75;;;;;;;11.97;65.80;101307.91;5067816;28;20132;-69
2021/06/13 02:34:52;;;;;;;14.07;3.75;;;;;;;11.88;65.78;101301.34;5067900;28;20523;-69
2021/06/13 02:37:19;;;;;;;15.77;3.13;;;;;;;11.77;65.89;101316.03;5067333;28;20415;-69
2021/06/13 02:39:47;;;;;;;13.40;3.92;;;;;;;11.80;65.93;101321.16;5085405;28;20060;-68
2021/06/13 02:42:14;;;;;;;15.15;2.70;;;;;;;11.81;65.75;101320.22;5082602;28;20044;-69
2021/06/13 02:44:41;;;;;;;15.95;3.72;;;;;;;11.81;65.88;101318.44;5068084;28;20412;-68
2021/06/13 02:47:13;;;;;;;11.98;4.45;;;;;;;11.68;66.21;101321.78;5054592;28;20058;-68
2021/06/13 02:49:40;;;;;;;10.85;3.35;;;;;;;11.66;66.62;101337.69;5067518;28;20538;-67
2021/06/13 02:52:49;;;;;;;8.30;3.15;;;;;;;11.66;66.84;101332.41;5070086;28;20126;-69
2021/06/13 02:55:22;;;;;;;10.35;2.88;;;;;;;11.63;67.12;101341.34;5059559;28;20119;-69
2021/06/13 02:57:58;;;;;;;13.75;3.20;;;;;;;11.54;67.75;101344.44;5068377;28;20063;-69
2021/06/13 03:00:27;;;;;;;7.35;2.53;;;;;;;11.56;67.59;101352.28;5084756;28;20397;-68
2021/06/13 03:02:55;;;;;;;11.50;2.92;;;;;;;11.48;67.67;101355.28;5067338;28;20076;-68
2021/06/13 03:05:25;;;;;;;14.73;3.70;;;;;;;11.50;68.06;101355.25;5061443;28;20044;-68
2021/06/13 03:07:53;;;;;;;13.65;3.33;;;;;;;11.50;68.14;101363.16;5067039;28;20052;-68
2021/06/13 03:10:21;;;;;;;13.45;3.50;;;;;;;11.51;68.28;101368.34;5067276;28;20044;-68
2021/06/13 03:12:49;;;;;;;11.23;4.35;;;;;;;11.52;68.32;101370.03;5066742;28;20258;-68
2021/06/13 03:15:16;;;;;;;16.50;3.25;;;;;;;11.41;68.62;101375.88;5075048;28;20507;-69
2021/06/13 03:17:44;;;;;;;11.13;3.72;;;;;;;11.53;68.20;101379.69;5067187;28;20138;-68
2021/06/13 03:20:12;;;;;;;12.88;3.63;;;;;;;11.56;68.05;101383.91;5067414;28;20123;-68
2021/06/13 03:22:40;;;;;;;13.52;3.20;;;;;;;11.56;68.44;101373.38;5066224;28;20122;-68
2021/06/13 03:25:08;;;;;;;7.47;2.88;;;;;;;11.60;68.36;101375.78;5073169;28;20123;-69
2021/06/13 03:27:37;;;;;;;14.48;3.78;;;;;;;11.62;68.43;101389.75;5075132;28;20533;-70
2021/06/13 03:30:06;;;;;;;12.65;3.47;;;;;;;11.60;68.54;101394.22;5084922;28;20048;-68
2021/06/13 03:32:34;;;;;;;17.88;3.53;;;;;;;11.67;68.12;101386.88;5051043;28;20415;-67
2021/06/13 03:35:01;;;;;;;15.52;3.65;;;;;;;11.70;68.20;101391.97;5077211;28;20046;-68
2021/06/13 03:37:29;;;;;;;10.07;3.13;;;;;;;11.68;68.49;101393.00;5066598;28;20071;-68
2021/06/13 03:39:56;;;;;;;16.20;4.38;;;;;;;11.70;68.41;101401.69;5057242;28;20040;-68
2021/06/13 03:42:23;;;;;;;17.27;3.67;;;;;;;11.61;68.94;101406.47;5054079;28;20066;-69
2021/06/13 03:44:52;;;;;;;10.02;3.38;;;;;;;11.61;69.31;101405.63;5076273;28;20048;-68
2021/06/13 03:47:19;;;;;;;6.60;3.22;;;;;;;11.71;69.28;101408.66;5066865;28;20392;-67
2021/06/13 03:49:48;;;;;;;14.13;3.65;;;;;;;11.72;68.99;101408.59;5066495;28;20052;-68
2021/06/13 03:52:17;;;;;;;9.75;2.85;;;;;;;11.97;68.42;101410.84;5066974;28;20051;-70
2021/06/13 03:54:45;;;;;;;12.32;3.13;;;;;;;12.15;67.92;101416.94;5067287;28;20117;-69
2021/06/13 03:57:13;;;;;;;12.48;4.28;;;;;;;12.23;67.63;101416.53;5066222;28;20074;-68
2021/06/13 03:59:40;;;;;;;19.23;3.80;;;;;;;12.21;67.47;101418.41;5084437;28;20138;-70
2021/06/13 04:02:08;;;;;;;14.48;3.60;;;;;;;12.22;67.46;101417.47;5046470;28;20054;-69
2021/06/13 04:04:48;;;;;;;13.88;2.75;;;;;;;12.07;68.09;101427.91;5083144;28;20072;-67
2021/06/13 04:07:16;;;;;;;16.73;3.60;;;;;;;12.11;68.25;101418.91;5087859;28;20055;-68
2021/06/13 04:09:44;;;;;;;11.30;2.90;;;;;;;12.25;67.85;101423.47;5065379;28;20056;-67
2021/06/13 04:12:17;;;;;;;15.02;3.67;;;;;;;12.27;67.45;101426.84;5065072;28;20484;-68
2021/06/13 04:14:45;;;;;;;11.80;3.92;;;;;;;12.30;67.48;101416.13;5068148;28;20117;-70
2021/06/13 04:17:20;;;;;;;9.73;3.60;;;;;;;12.49;67.02;101429.19;5067103;28;20075;-67
2021/06/13 04:19:47;;;;;;;13.07;3.67;;;;;;;12.46;67.11;101425.88;5065833;28;20048;-69
2021/06/13 04:22:17;;;;;;;10.82;3.50;;;;;;;12.50;66.83;101424.75;5087957;28;20068;-67
2021/06/13 04:24:46;;;;;;;11.88;3.42;;;;;;;12.60;66.19;101433.88;5066537;28;20052;-69
2021/06/13 04:27:16;;;;;;;12.82;3.17;;;;;;;12.61;66.31;101423.25;5071846;28;20152;-67
2021/06/13 04:29:43;;;;;;;12.80;3.47;;;;;;;12.71;65.92;101428.88;5075093;28;20087;-69
2021/06/13 04:32:10;;;;;;;14.68;3.35;;;;;;;12.97;65.42;101429.22;5094262;28;20315;-68
2021/06/13 04:34:37;;;;;;;9.73;3.00;;;;;;;12.96;65.30;101436.28;5074726;28;20052;-68
2021/06/13 04:37:07;;;;;;;14.13;3.13;;;;;;;12.87;65.05;101436.81;5070411;28;20075;-69
2021/06/13 04:39:34;;;;;;;12.77;2.90;;;;;;;12.87;65.33;101444.72;5084686;28;20059;-68
2021/06/13 04:42:04;;;;;;;12.15;3.20;;;;;;;12.89;65.40;101435.78;5071314;28;20050;-68
2021/06/13 04:44:32;;;;;;;13.90;4.00;;;;;;;13.02;64.54;101441.25;5088382;28;20080;-69
2021/06/13 04:46:59;;;;;;;8.65;2.85;;;;;;;13.02;64.85;101446.53;5088365;28;20048;-69
2021/06/13 04:49:48;;;;;;;9.10;2.83;;;;;;;13.04;64.99;101447.28;5087268;28;20080;-68
2021/06/13 04:52:17;;;;;;;12.23;2.88;;;;;;;12.97;64.70;101451.22;5088260;28;20048;-69
2021/06/13 04:54:52;;;;;;;7.45;2.85;;;;;;;12.76;65.64;101457.69;5072122;28;20058;-69
2021/06/13 04:57:19;;;;;;;9.63;2.83;;;;;;;12.61;66.10;101456.75;5091361;28;20411;-68
2021/06/13 04:59:46;;;;;;;11.38;3.00;;;;;;;12.79;65.66;101461.03;5087774;28;20730;-68
2021/06/13 05:02:14;;;;;;;10.15;3.08;;;;;;;12.78;65.39;101458.44;5088316;28;20058;-68
2021/06/13 05:04:42;;;;;;;16.90;3.42;;;;;;;12.88;65.31;101463.16;5055919;28;20151;-68
2021/06/13 05:07:09;;;;;;;6.75;3.42;;;;;;;13.10;64.87;101461.94;5066656;28;20044;-69
2021/06/13 05:09:36;;;;;;;9.95;2.88;;;;;;;13.04;64.64;101462.31;5070042;28;20440;-70
2021/06/13 05:12:04;;;;;;;14.73;3.30;;;;;;;12.98;65.03;101463.50;5087471;28;20639;-68
2021/06/13 05:14:31;;;;;;;20.05;3.35;;;;;;;13.00;65.18;101461.59;5090722;28;20380;-67
2021/06/13 05:16:58;;;;;;;12.52;3.58;;;;;;;13.01;65.14;101463.31;5069873;28;20051;-68
2021/06/13 05:19:25;;;;;;;12.07;4.18;;;;;;;12.96;65.44;101457.44;5070235;28;20097;-69
2021/06/13 05:21:53;;;;;;;12.45;3.42;;;;;;;13.08;64.66;101469.13;5087757;28;20058;-69
2021/06/13 05:24:20;;;;;;;8.93;3.60;;;;;;;13.00;65.15;101476.63;5091883;28;20127;-68
2021/06/13 05:26:47;;;;;;;14.25;3.13;;;;;;;13.14;64.55;101480.19;5086972;28;20054;-69
2021/06/13 05:29:14;;;;;;;9.50;2.67;;;;;;;13.05;64.79;101469.28;5089134;28;20389;-69
2021/06/13 05:31:41;;;;;;;17.73;3.65;;;;;;;13.19;64.46;101479.94;5068488;28;20403;-70
2021/06/13 05:34:09;;;;;;;11.63;3.08;;;;;;;13.16;64.86;101480.97;5091967;28;20177;-69
2021/06/13 05:36:36;;;;;;;11.93;2.63;;;;;;;13.19;64.16;101479.94;5085107;28;20050;-69
2021/06/13 05:39:03;;;;;;;14.15;3.08;;;;;;;13.28;64.24;101479.44;5089306;28;20058;-69
2021/06/13 05:41:30;;;;;;;9.65;3.00;;;;;;;13.19;64.82;101482.56;5082352;28;20097;-68
2021/06/13 05:44:01;;;;;;;10.40;2.97;;;;;;;13.10;64.71;101483.97;5092548;28;20036;-69
2021/06/13 05:46:29;;;;;;;11.82;3.13;;;;;;;13.09;64.72;101487.53;5085360;28;20404;-68
2021/06/13 05:48:58;;;;;;;14.00;3.38;;;;;;;13.28;64.34;101491.81;5089565;28;20106;-68
2021/06/13 05:51:25;;;;;;;6.63;2.42;;;;;;;13.41;64.13;101493.69;5094673;28;20054;-68
2021/06/13 05:53:52;;;;;;;8.40;3.15;;;;;;;13.48;63.53;101502.13;5091464;28;20074;-67
2021/06/13 05:56:19;;;;;;;13.70;3.45;;;;;;;13.65;62.83;101502.03;5085502;28;20546;-67
2021/06/13 05:58:46;;;;;;;15.05;2.83;;;;;;;13.60;63.29;101503.25;5081628;28;20120;-67
2021/06/13 06:01:14;;;;;;;11.98;3.25;;;;;;;13.68;63.40;101512.41;5084216;28;20545;-67
2021/06/13 06:03:41;;;;;;;15.18;3.88;;;;;;;13.52;63.44;101516.91;5087645;28;20075;-66
2021/06/13 06:06:08;;;;;;;13.70;3.03;;;;;;;13.55;63.59;101526.44;5085042;28;20324;-67
2021/06/13 06:08:35;;;;;;;10.35;2.80;;;;;;;13.76;62.96;101516.41;5070190;28;20048;-68
2021/06/13 06:11:02;;;;;;;15.85;2.88;;;;;;;13.64;63.07;101517.97;5073729;28;20099;-67
2021/06/13 06:13:29;;;;;;;10.18;3.80;;;;;;;13.92;61.85;101525.19;5070329;28;20435;-67
2021/06/13 06:15:57;;;;;;;9.82;3.00;;;;;;;14.11;61.46;101538.19;5071637;28;20044;-68
2021/06/13 06:18:24;;;;;;;9.57;2.95;;;;;;;13.91;61.72;101532.28;5087891;28;20056;-68
2021/06/13 06:20:51;;;;;;;10.45;3.22;;;;;;;13.90;62.03;101529.69;5084023;28;20131;-67
2021/06/13 06:23:19;;;;;;;9.32;3.05;;;;;;;13.96;61.67;101539.94;5070068;28;20060;-67
2021/06/13 06:25:46;;;;;;;17.08;3.30;;;;;;;13.80;61.36;101539.13;5097468;28;20079;-67
2021/06/13 06:28:13;;;;;;;12.07;2.80;;;;;;;13.80;61.90;101542.63;5071706;28;20087;-68
2021/06/13 06:30:40;;;;;;;9.30;2.53;;;;;;;13.80;61.91;101533.81;5085432;28;20058;-68
2021/06/13 06:33:08;;;;;;;12.48;3.22;;;;;;;13.70;62.51;101537.94;5070612;28;20048;-67
2021/06/13 06:35:35;;;;;;;8.27;2.63;;;;;;;13.45;62.93;101531.41;5069388;28;20044;-66
2021/06/13 06:38:02;;;;;;;11.63;3.05;;;;;;;13.69;62.21;101545.03;5096671;28;20062;-67
2021/06/13 06:40:29;;;;;;;14.30;2.85;;;;;;;13.98;61.17;101532.75;5086979;28;20048;-68
2021/06/13 06:42:56;;;;;;;11.75;2.67;;;;;;;14.46;59.86;101535.22;5095151;28;20136;-67
2021/06/13 06:45:24;;;;;;;9.55;3.13;;;;;;;14.66;58.87;101538.38;5068661;28;20526;-67
2021/06/13 06:47:51;;;;;;;13.77;3.30;;;;;;;14.64;58.66;101544.72;5087165;28;20364;-68
2021/06/13 06:50:18;;;;;;;10.63;3.70;;;;;;;14.69;58.58;101546.16;5070775;28;20080;-68
2021/06/13 06:52:46;;;;;;;13.68;3.38;;;;;;;14.96;58.53;101539.25;5086804;28;20056;-69
2021/06/13 06:55:15;;;;;;;15.52;3.63;;;;;;;15.16;57.82;101542.31;5086216;28;20218;-68
2021/06/13 06:57:44;;;;;;;13.35;3.50;;;;;;;15.15;57.62;101545.91;5085132;28;20120;-67
2021/06/13 07:00:13;;;;;;;11.43;2.92;;;;;;;14.99;57.97;101553.13;5065393;28;20511;-70
2021/06/13 07:02:41;;;;;;;10.35;2.90;;;;;;;15.14;57.48;101543.38;5067558;28;20052;-68
2021/06/13 07:05:09;;;;;;;9.10;2.75;;;;;;;15.35;56.82;101543.78;5087393;28;20064;-69
2021/06/13 07:07:36;;;;;;;12.95;3.60;;;;;;;15.26;57.01;101550.53;5074160;28;20088;-68
2021/06/13 07:10:04;;;;;;;12.95;3.45;;;;;;;15.00;58.10;101556.66;5089481;28;20054;-67
2021/06/13 07:12:31;;;;;;;12.57;3.65;;;;;;;15.26;57.10;101563.78;5072931;28;20450;-67
2021/06/13 07:14:59;;;;;;;14.93;2.97;;;;;;;15.59;55.32;101570.56;5090095;28;20385;-67
2021/06/13 07:17:26;;;;;;;15.57;3.28;;;;;;;15.61;54.90;101566.00;5054799;28;20051;-68
2021/06/13 07:19:53;;;;;;;9.82;2.63;;;;;;;16.09;53.62;101555.78;5086399;28;20431;-67
2021/06/13 07:22:22;;;;;;;8.55;3.13;;;;;;;16.25;52.79;101547.59;5085626;28;20399;-70
2021/06/13 07:24:52;;;;;;;11.60;3.15;;;;;;;16.50;52.07;101552.09;5067831;28;20101;-67
2021/06/13 07:27:20;;;;;;;9.25;3.35;;;;;;;16.54;51.43;101551.78;5086946;28;20052;-68
2021/06/13 07:29:48;;;;;;;13.68;2.72;;;;;;;16.75;50.43;101561.91;5070612;28;20430;-67
2021/06/13 07:32:16;;;;;;;12.65;2.97;;;;;;;17.07;50.08;101551.66;5069305;28;20044;-68
2021/06/13 07:34:43;;;;;;;13.88;3.17;;;;;;;17.15;49.66;101565.25;5085850;28;20540;-67
2021/06/13 07:37:12;;;;;;;12.13;2.72;;;;;;;17.42;48.15;101563.25;5085543;28;20103;-67
2021/06/13 07:39:40;;;;;;;10.95;2.78;;;;;;;17.67;48.34;101562.31;5069528;28;20052;-67
2021/06/13 07:42:08;;;;;;;13.40;3.75;;;;;;;17.55;48.26;101565.03;5082038;28;20123;-67
2021/06/13 07:44:36;;;;;;;12.02;2.83;;;;;;;17.43;48.79;101559.66;5088612;28;20052;-67
2021/06/13 07:47:03;;;;;;;11.82;2.53;;;;;;;17.51;48.36;101572.38;5099201;28;20044;-68
2021/06/13 07:49:31;;;;;;;9.20;2.50;;;;;;;17.43;48.95;101575.63;5085281;28;20174;-67
2021/06/13 07:51:59;;;;;;;15.30;3.53;;;;;;;17.46;48.71;101570.06;5089781;28;20053;-68
2021/06/13 07:54:27;;;;;;;8.07;2.30;;;;;;;17.28;48.70;101574.06;5089962;28;20048;-68
2021/06/13 07:56:54;;;;;;;10.60;2.92;;;;;;;17.17;48.88;101571.31;5088430;28;20062;-68
2021/06/13 07:59:21;;;;;;;11.27;2.97;;;;;;;17.09;48.69;101584.31;5088558;28;20148;-66
2021/06/13 08:01:48;;;;;;;9.40;2.35;;;;;;;16.64;50.38;101586.56;5091567;28;20039;-68
2021/06/13 08:04:16;;;;;;;13.88;2.92;;;;;;;16.78;49.96;101583.81;5106427;28;20511;-67
2021/06/13 08:06:44;;;;;;;16.25;3.00;;;;;;;16.61;50.52;101586.75;5070986;28;20040;-66
2021/06/13 08:09:13;;;;;;;11.88;3.28;;;;;;;16.49;50.99;101582.31;5063159;28;20047;-68
2021/06/13 08:11:41;;;;;;;8.32;2.72;;;;;;;16.90;49.31;101587.44;5097030;28;20060;-68
2021/06/13 08:14:08;;;;;;;8.50;2.28;;;;;;;16.87;49.24;101599.13;5090952;28;20050;-69
2021/06/13 08:16:35;;;;;;;12.02;2.65;;;;;;;17.31;48.67;101600.47;5088149;28;20298;-68
2021/06/13 08:19:02;;;;;;;11.73;2.90;;;;;;;17.71;47.63;101605.56;5090508;28;20048;-69
2021/06/13 08:21:29;;;;;;;11.00;2.88;;;;;;;17.13;47.31;101599.13;5086566;28;20127;-67
2021/06/13 08:23:56;;;;;;;10.48;2.95;;;;;;;17.73;46.75;101606.28;5072029;28;20046;-67
2021/06/13 08:26:24;;;;;;;7.32;2.13;;;;;;;18.14;46.38;101618.38;5087366;28;20131;-67
2021/06/13 08:28:51;;;;;;;10.20;2.83;;;;;;;18.29;45.51;101605.72;5078276;28;20044;-67
2021/06/13 08:31:21;;;;;;;13.85;2.67;;;;;;;17.89;46.11;101622.03;5086837;28;20235;-67
2021/06/13 08:33:49;;;;;;;8.07;2.20;;;;;;;17.91;46.83;101623.59;5090040;28;20143;-66
2021/06/13 08:36:16;;;;;;;12.07;2.78;;;;;;;18.02;46.33;101606.00;5087282;28;20105;-68
2021/06/13 08:38:43;;;;;;;8.93;2.38;;;;;;;17.44;47.17;101619.06;5070988;28;20113;-68
2021/06/13 08:41:12;;;;;;;9.68;2.75;;;;;;;17.64;47.31;101634.44;5065034;28;20052;-67
2021/06/13 08:43:39;;;;;;;6.90;2.70;;;;;;;17.06;48.23;101619.13;5094543;28;20502;-67
2021/06/13 08:46:07;;;;;;;9.82;2.70;;;;;;;17.48;48.07;101633.84;5082627;28;20153;-66
2021/06/13 08:48:34;;;;;;;10.23;3.15;;;;;;;17.38;48.40;101640.78;5097214;28;20055;-67
2021/06/13 08:51:02;;;;;;;7.20;3.03;;;;;;;16.65;49.78;101642.28;5051410;28;20135;-68
2021/06/13 08:53:29;;;;;;;8.50;3.38;;;;;;;16.70;50.57;101639.28;5090255;28;20123;-67
2021/06/13 08:55:56;;;;;;;10.38;2.97;;;;;;;16.64;51.20;101648.56;5090872;28;20044;-68
2021/06/13 08:58:26;;;;;;;7.30;2.88;;;;;;;16.55;51.72;101643.00;5091341;28;20052;-67
2021/06/13 09:00:53;;;;;;;12.27;2.90;;;;;;;16.12;52.89;101649.41;5086938;28;20064;-67
2021/06/13 09:03:20;;;;;;;9.38;3.33;;;;;;;15.55;54.42;101657.47;5098005;28;20047;-67
2021/06/13 09:05:47;;;;;;;10.68;3.97;;;;;;;15.72;54.51;101660.91;5090385;28;20448;-69
2021/06/13 09:08:15;;;;;;;13.15;2.97;;;;;;;15.78;54.56;101663.16;5090259;28;20506;-68
2021/06/13 09:10:44;;;;;;;12.90;2.80;;;;;;;15.78;54.77;101664.00;5079836;28;20062;-68
2021/06/13 09:13:21;;;;;;;11.68;3.42;;;;;;;15.57;55.33;101658.22;5089881;28;20048;-68
2021/06/13 09:15:51;;;;;;;10.48;3.20;;;;;;;15.56;55.72;101659.19;5086551;28;20130;-67
2021/06/13 09:18:44;;;;;;;8.88;3.58;;;;;;;15.49;56.20;101672.94;5060441;28;20064;-67
2021/06/13 09:21:13;;;;;;;10.00;4.78;;;;;;;15.53;56.42;101669.97;5063180;28;20044;-67
2021/06/13 09:23:42;;;;;;;15.40;3.70;;;;;;;15.70;55.85;101668.94;5055357;28;20048;-67
2021/06/13 09:26:16;;;;;;;10.90;3.20;;;;;;;16.01;55.16;101678.47;5085786;28;20051;-68
2021/06/13 09:28:45;;;;;;;8.80;3.25;;;;;;;16.22;54.04;101665.59;5073001;28;20063;-67
2021/06/13 09:31:19;;;;;;;12.57;2.67;;;;;;;16.27;54.21;101678.56;5093707;28;20096;-65
2021/06/13 09:33:49;;;;;;;13.70;3.83;;;;;;;15.52;56.52;101686.88;5091686;28;20131;-66
2021/06/13 09:36:23;;;;;;;13.73;3.42;;;;;;;15.09;60.46;101692.19;5085176;28;20048;-68
2021/06/13 09:38:55;;;;;;;10.88;3.70;;;;;;;14.45;65.73;101701.25;5088785;28;20047;-67
2021/06/13 09:41:23;;;;;;;10.95;3.40;;;;;;;14.32;67.31;101692.31;5082570;28;20051;-67
2021/06/13 09:43:55;;;;;;;12.55;3.97;;;;;;;14.27;66.88;101704.97;5089046;28;20048;-68
2021/06/13 09:46:28;;;;;;;9.75;3.10;;;;;;;14.17;66.86;101708.13;5086214;28;20076;-67
2021/06/13 09:49:02;;;;;;;14.23;3.60;;;;;;;14.03;68.31;101710.72;5087499;28;20048;-67
2021/06/13 09:51:34;;;;;;;12.77;3.63;;;;;;;13.74;70.63;101709.69;5062850;28;20508;-69
2021/06/13 09:54:04;;;;;;;15.02;4.05;;;;;;;13.77;70.36;101701.56;5076809;28;20040;-66
2021/06/13 09:56:37;;;;;;;12.23;3.40;;;;;;;13.88;69.38;101701.84;5073708;28;20603;-68
2021/06/13 09:59:10;;;;;;;16.13;3.33;;;;;;;14.37;66.96;101706.16;5076969;28;20507;-67
2021/06/13 10:01:57;;;;;;;10.38;4.13;;;;;;;14.67;65.58;101701.75;5085708;28;20074;-66
2021/06/13 10:04:37;;;;;;;9.70;2.80;;;;;;;15.54;61.69;101708.03;5065528;28;20511;-68
2021/06/13 10:07:16;;;;;;;13.00;3.22;;;;;;;16.45;59.75;101704.75;5066788;28;20117;-67
2021/06/13 10:09:48;;;;;;;10.57;3.72;;;;;;;17.01;56.80;101701.91;5086360;28;20492;-67
2021/06/13 10:12:15;;;;;;;11.38;2.95;;;;;;;17.67;54.34;101698.13;5067858;28;20126;-69
2021/06/13 10:14:43;;;;;;;12.63;3.10;;;;;;;17.85;52.17;101697.81;5086450;28;20083;-67
2021/06/13 10:17:11;;;;;;;11.63;3.70;;;;;;;18.10;51.42;101694.19;5086666;28;20048;-67
2021/06/13 10:19:46;;;;;;;8.85;3.47;;;;;;;17.92;51.39;101709.69;5086472;28;20064;-68
2021/06/13 10:22:14;;;;;;;13.23;3.60;;;;;;;17.72;51.69;101706.63;5086473;28;20067;-68
2021/06/13 10:24:43;;;;;;;12.73;4.30;;;;;;;17.02;53.40;101710.72;5095919;28;20113;-68
2021/06/13 10:27:12;;;;;;;10.73;3.13;;;;;;;16.66;53.98;101715.78;5086938;28;20044;-68
2021/06/13 10:29:43;;;;;;;8.27;3.45;;;;;;;16.61;53.81;101715.22;5100672;28;20579;-67
2021/06/13 10:32:11;;;;;;;8.45;3.20;;;;;;;16.53;54.40;101712.25;5070837;28;20078;-68
2021/06/13 10:34:39;;;;;;;15.90;4.47;;;;;;;16.84;54.06;101704.88;5088953;28;20056;-67
2021/06/13 10:37:10;;;;;;;13.52;4.72;;;;;;;17.04;52.36;101703.50;5086706;28;20510;-68
2021/06/13 10:39:38;;;;;;;17.10;3.55;;;;;;;17.13;52.43;101713.53;5076583;28;20512;-69
2021/06/13 10:42:13;;;;;;;9.60;4.05;;;;;;;16.74;51.76;101722.41;5051448;28;20648;-67
2021/06/13 10:44:44;;;;;;;12.05;4.30;;;;;;;17.45;50.10;101721.91;5077928;28;20151;-67
2021/06/13 10:47:12;;;;;;;8.68;3.78;;;;;;;17.71;48.91;101718.25;5093950;28;20044;-67
2021/06/13 10:49:42;;;;;;;11.15;3.92;;;;;;;17.42;49.36;101716.78;5079226;28;20044;-67
2021/06/13 10:52:11;;;;;;;11.68;3.22;;;;;;;17.61;48.99;101719.88;5056701;28;20050;-68
2021/06/13 10:54:49;;;;;;;14.55;3.45;;;;;;;17.61;48.19;101711.91;5088051;28;20060;-68
2021/06/13 10:57:19;;;;;;;8.02;2.65;;;;;;;17.61;47.95;101711.91;5091624;28;20553;-68
2021/06/13 10:59:50;;;;;;;11.05;3.08;;;;;;;18.02;47.54;101717.91;5063183;28;20060;-67
2021/06/13 11:02:23;;;;;;;12.47;4.97;;;;;;;17.83;47.97;101718.34;5051733;28;20062;-68
2021/06/13 11:04:53;;;;;;;13.30;3.40;;;;;;;17.58;48.30;101728.06;5069889;28;20092;-69
2021/06/13 11:07:29;;;;;;;15.43;4.15;;;;;;;17.21;48.13;101727.16;5085569;28;20039;-67
2021/06/13 11:10:17;;;;;;;12.07;4.47;;;;;;;16.99;49.03;101741.06;5092185;28;20044;-67
2021/06/13 11:12:52;;;;;;;8.52;3.25;;;;;;;16.87;49.01;101739.25;5069554;28;20086;-68
2021/06/13 11:15:22;;;;;;;7.72;3.35;;;;;;;16.70;49.94;101737.69;5088090;28;20114;-68
2021/06/13 11:17:55;;;;;;;13.48;3.67;;;;;;;16.59;50.57;101742.88;5085661;28;20036;-68
2021/06/13 11:23:06;;;;;;;11.57;4.07;;;;;;;16.81;50.21;101744.97;5060791;28;20101;-67
2021/06/13 11:25:37;;;;;;;10.13;3.35;;;;;;;16.92;49.33;101745.94;5071004;28;20482;-67
2021/06/13 11:28:09;;;;;;;12.35;4.70;;;;;;;17.07;49.11;101748.53;5068593;28;20409;-67
2021/06/13 11:30:42;;;;;;;11.20;3.60;;;;;;;17.58;47.98;101741.41;5086299;28;20131;-68
2021/06/13 11:33:10;;;;;;;10.00;3.78;;;;;;;17.67;47.38;101748.72;5089972;28;20053;-68